createdAt,value
2023-05-04T00:00:27.163Z,11.41
2023-05-04T00:01:27.143Z,11.37
2023-05-04T00:02:27.189Z,11.36
2023-05-04T00:03:27.233Z,11.40
2023-05-04T00:04:27.207Z,11.35
2023-05-04T00:05:27.114Z,11.32
2023-05-04T00:06:27.113Z,11.32
2023-05-04T00:07:27.074Z,11.29
2023-05-04T00:08:27.070Z,11.27
2023-05-04T00:09:27.048Z,11.26
2023-05-04T00:10:27.059Z,11.26
2023-05-04T00:11:27.039Z,11.25
2023-05-04T00:12:27.067Z,11.23
2023-05-04T00:13:27.015Z,11.23
2023-05-04T00:14:26.989Z,11.23
2023-05-04T00:15:26.989Z,11.22
2023-05-04T00:16:28.031Z,11.18
2023-05-04T00:17:27.184Z,11.17
2023-05-04T00:18:26.953Z,11.17
2023-05-04T00:19:26.943Z,11.17
2023-05-04T00:20:26.956Z,11.17
2023-05-04T00:21:26.918Z,11.17
2023-05-04T00:22:26.916Z,11.15
2023-05-04T00:23:26.929Z,11.14
2023-05-04T00:24:26.884Z,11.10
2023-05-04T00:25:26.871Z,11.11
2023-05-04T00:26:26.851Z,11.10
2023-05-04T00:27:26.866Z,11.07
2023-05-04T00:28:28.386Z,11.05
2023-05-04T00:29:26.896Z,11.04
2023-05-04T00:30:26.826Z,11.00
2023-05-04T00:31:26.904Z,11.00
2023-05-04T00:32:26.831Z,11.00
2023-05-04T00:33:26.775Z,10.99
2023-05-04T00:34:26.777Z,10.97
2023-05-04T00:35:26.813Z,10.96
2023-05-04T00:36:26.753Z,10.96
2023-05-04T00:37:26.738Z,10.96
2023-05-04T00:38:26.747Z,10.96
2023-05-04T00:39:26.724Z,10.96
2023-05-04T00:40:26.708Z,10.94
2023-05-04T00:41:26.740Z,10.94
2023-05-04T00:42:26.677Z,10.92
2023-05-04T00:43:26.676Z,10.90
2023-05-04T00:44:26.670Z,10.87
2023-05-04T00:45:26.658Z,10.86
2023-05-04T00:46:26.724Z,10.86
2023-05-04T00:47:26.711Z,10.86
2023-05-04T00:48:26.639Z,10.84
2023-05-04T00:49:26.602Z,10.84
2023-05-04T00:50:26.590Z,10.82
2023-05-04T00:51:26.629Z,10.79
2023-05-04T00:52:26.594Z,10.75
2023-05-04T00:53:26.595Z,10.75
2023-05-04T00:54:26.570Z,10.72
2023-05-04T00:55:26.534Z,10.69
2023-05-04T00:56:26.526Z,10.69
2023-05-04T00:57:26.547Z,10.67
2023-05-04T00:58:26.491Z,10.63
2023-05-04T00:59:26.512Z,10.63
2023-05-04T01:00:26.496Z,10.61
2023-05-04T01:01:26.495Z,10.60
2023-05-04T01:02:26.523Z,10.60
2023-05-04T01:03:26.713Z,10.57
2023-05-04T01:04:27.456Z,10.56
2023-05-04T01:05:26.432Z,10.54
2023-05-04T01:06:26.428Z,10.51
2023-05-04T01:07:26.417Z,10.49
2023-05-04T01:08:26.414Z,10.48
2023-05-04T01:09:26.382Z,10.48
2023-05-04T01:10:26.380Z,10.46
2023-05-04T01:11:26.353Z,10.46
2023-05-04T01:12:26.375Z,10.44
2023-05-04T01:13:26.344Z,10.46
2023-05-04T01:14:26.358Z,10.46
2023-05-04T01:15:26.321Z,10.42
2023-05-04T01:16:26.317Z,10.44
2023-05-04T01:17:26.458Z,10.41
2023-05-04T01:18:26.290Z,10.41
2023-05-04T01:19:26.371Z,10.38
2023-05-04T01:20:26.284Z,10.38
2023-05-04T01:21:26.259Z,10.34
2023-05-04T01:22:26.271Z,10.30
2023-05-04T01:23:26.253Z,10.26
2023-05-04T01:24:26.230Z,10.22
2023-05-04T01:25:26.225Z,10.16
2023-05-04T01:26:26.190Z,10.12
2023-05-04T01:27:26.201Z,10.09
2023-05-04T01:28:26.158Z,10.04
2023-05-04T01:29:26.155Z,9.99
2023-05-04T01:30:26.188Z,9.94
2023-05-04T01:31:26.292Z,9.94
2023-05-04T01:32:26.354Z,9.89
2023-05-04T01:33:26.288Z,9.87
2023-05-04T01:34:26.152Z,9.86
2023-05-04T01:35:27.565Z,9.86
2023-05-04T01:36:26.111Z,9.86
2023-05-04T01:37:26.075Z,9.84
2023-05-04T01:38:26.445Z,9.84
2023-05-04T01:39:27.022Z,9.84
2023-05-04T01:40:26.151Z,9.83
2023-05-04T01:41:26.446Z,9.83
2023-05-04T01:42:27.574Z,9.82
2023-05-04T01:43:26.178Z,9.79
2023-05-04T01:44:26.946Z,9.77
2023-05-04T01:45:27.041Z,9.74
2023-05-04T01:46:25.983Z,9.74
2023-05-04T01:47:27.457Z,9.66
2023-05-04T01:48:27.890Z,9.64
2023-05-04T01:49:25.980Z,9.62
2023-05-04T01:50:25.948Z,9.61
2023-05-04T01:51:25.915Z,9.59
2023-05-04T01:52:25.891Z,9.59
2023-05-04T01:53:25.950Z,9.58
2023-05-04T01:54:25.893Z,9.58
2023-05-04T01:55:25.892Z,9.55
2023-05-04T01:56:25.910Z,9.54
2023-05-04T01:57:25.930Z,9.54
2023-05-04T01:58:26.803Z,9.51
2023-05-04T01:59:25.958Z,9.50
2023-05-04T02:00:27.276Z,9.47
2023-05-04T02:01:25.815Z,9.46
2023-05-04T02:02:25.864Z,9.44
2023-05-04T02:03:26.878Z,9.41
2023-05-04T02:04:25.789Z,9.40
2023-05-04T02:05:25.767Z,9.36
2023-05-04T02:06:25.849Z,9.36
2023-05-04T02:07:25.722Z,9.31
2023-05-04T02:08:25.747Z,9.29
2023-05-04T02:09:25.752Z,9.28
2023-05-04T02:10:25.701Z,9.26
2023-05-04T02:11:25.712Z,9.25
2023-05-04T02:12:25.695Z,9.25
2023-05-04T02:13:25.685Z,9.23
2023-05-04T02:14:25.690Z,9.21
2023-05-04T02:15:25.636Z,9.19
2023-05-04T02:16:25.714Z,9.18
2023-05-04T02:17:25.643Z,9.18
2023-05-04T02:18:27.075Z,9.16
2023-05-04T02:19:25.614Z,9.16
2023-05-04T02:20:25.618Z,9.13
2023-05-04T02:21:27.156Z,9.11
2023-05-04T02:22:25.584Z,9.10
2023-05-04T02:23:25.560Z,9.06
2023-05-04T02:24:25.544Z,9.02
2023-05-04T02:25:25.564Z,8.97
2023-05-04T02:26:27.065Z,8.94
2023-05-04T02:27:25.507Z,8.88
2023-05-04T02:28:25.532Z,8.85
2023-05-04T02:29:25.492Z,8.81
2023-05-04T02:30:25.501Z,8.76
2023-05-04T02:31:25.524Z,8.74
2023-05-04T02:32:25.467Z,8.71
2023-05-04T02:33:25.480Z,8.66
2023-05-04T02:34:25.544Z,8.61
2023-05-04T02:35:25.431Z,8.58
2023-05-04T02:36:25.446Z,8.56
2023-05-04T02:37:25.655Z,8.55
2023-05-04T02:38:25.392Z,8.52
2023-05-04T02:39:25.467Z,8.49
2023-05-04T02:40:25.383Z,8.45
2023-05-04T02:41:25.648Z,8.42
2023-05-04T02:42:25.366Z,8.36
2023-05-04T02:43:25.640Z,8.33
2023-05-04T02:44:25.377Z,8.28
2023-05-04T02:45:25.382Z,8.27
2023-05-04T02:46:25.305Z,8.27
2023-05-04T02:47:25.318Z,8.24
2023-05-04T02:48:26.098Z,8.24
2023-05-04T02:49:25.290Z,8.23
2023-05-04T02:50:26.719Z,8.23
2023-05-04T02:51:25.707Z,8.20
2023-05-04T02:52:25.257Z,8.20
2023-05-04T02:53:25.248Z,8.19
2023-05-04T02:54:25.285Z,8.18
2023-05-04T02:55:25.242Z,8.16
2023-05-04T02:56:25.229Z,8.15
2023-05-04T02:57:26.712Z,8.13
2023-05-04T02:58:25.216Z,8.15
2023-05-04T02:59:25.193Z,8.15
2023-05-04T03:00:25.157Z,8.13
2023-05-04T03:01:25.230Z,8.13
2023-05-04T03:02:25.172Z,8.09
2023-05-04T03:03:25.158Z,8.09
2023-05-04T03:04:25.231Z,8.08
2023-05-04T03:05:25.121Z,8.06
2023-05-04T03:06:25.124Z,8.01
2023-05-04T03:07:25.083Z,8.03
2023-05-04T03:08:25.062Z,8.05
2023-05-04T03:09:25.127Z,8.05
2023-05-04T03:10:25.052Z,8.01
2023-05-04T03:11:25.174Z,8.01
2023-05-04T03:12:25.106Z,8.01
2023-05-04T03:13:25.093Z,8.00
2023-05-04T03:14:25.013Z,8.01
2023-05-04T03:15:24.998Z,8.06
2023-05-04T03:16:25.040Z,8.06
2023-05-04T03:17:24.983Z,8.06
2023-05-04T03:18:25.011Z,8.06
2023-05-04T03:19:25.018Z,8.06
2023-05-04T03:20:24.949Z,8.08
2023-05-04T03:21:24.954Z,8.06
2023-05-04T03:22:24.977Z,8.06
2023-05-04T03:23:24.966Z,8.09
2023-05-04T03:24:25.049Z,8.10
2023-05-04T03:25:24.909Z,8.10
2023-05-04T03:26:24.882Z,8.09
2023-05-04T03:27:24.948Z,8.08
2023-05-04T03:28:24.898Z,8.06
2023-05-04T03:29:24.842Z,8.05
2023-05-04T03:30:24.823Z,8.03
2023-05-04T03:31:24.853Z,8.00
2023-05-04T03:32:24.833Z,8.01
2023-05-04T03:33:24.835Z,7.98
2023-05-04T03:34:24.828Z,7.97
2023-05-04T03:35:25.329Z,7.95
2023-05-04T03:36:24.774Z,7.93
2023-05-04T03:37:24.735Z,7.90
2023-05-04T03:38:26.250Z,7.91
2023-05-04T03:39:24.778Z,7.90
2023-05-04T03:40:24.720Z,7.87
2023-05-04T03:41:24.711Z,7.85
2023-05-04T03:42:24.745Z,7.82
2023-05-04T03:43:24.677Z,7.80
2023-05-04T03:44:24.669Z,7.77
2023-05-04T03:45:24.645Z,7.75
2023-05-04T03:46:24.753Z,7.73
2023-05-04T03:47:24.674Z,7.70
2023-05-04T03:48:24.619Z,7.72
2023-05-04T03:49:24.609Z,7.72
2023-05-04T03:50:26.072Z,7.73
2023-05-04T03:51:24.616Z,7.72
2023-05-04T03:52:24.584Z,7.72
2023-05-04T03:53:24.597Z,7.73
2023-05-04T03:54:24.571Z,7.72
2023-05-04T03:55:24.549Z,7.70
2023-05-04T03:56:24.530Z,7.67
2023-05-04T03:57:24.801Z,7.66
2023-05-04T03:58:24.552Z,7.63
2023-05-04T03:59:25.510Z,7.61
2023-05-04T04:00:24.513Z,7.58
2023-05-04T04:01:24.520Z,7.56
2023-05-04T04:02:24.582Z,7.53
2023-05-04T04:03:24.649Z,7.51
2023-05-04T04:04:24.535Z,7.48
2023-05-04T04:05:24.510Z,7.45
2023-05-04T04:06:24.434Z,7.45
2023-05-04T04:07:24.508Z,7.47
2023-05-04T04:08:24.452Z,7.43
2023-05-04T04:09:24.426Z,7.42
2023-05-04T04:10:24.506Z,7.39
2023-05-04T04:11:24.368Z,7.39
2023-05-04T04:12:24.425Z,7.38
2023-05-04T04:13:24.359Z,7.38
2023-05-04T04:14:25.291Z,7.38
2023-05-04T04:15:24.340Z,7.38
2023-05-04T04:16:24.453Z,7.36
2023-05-04T04:17:24.446Z,7.38
2023-05-04T04:18:24.315Z,7.39
2023-05-04T04:19:24.271Z,7.38
2023-05-04T04:20:24.275Z,7.35
2023-05-04T04:21:24.249Z,7.33
2023-05-04T04:22:25.248Z,7.31
2023-05-04T04:23:24.245Z,7.29
2023-05-04T04:24:26.212Z,7.28
2023-05-04T04:25:24.240Z,7.28
2023-05-04T04:26:24.250Z,7.29
2023-05-04T04:27:24.405Z,7.29
2023-05-04T04:28:24.183Z,7.32
2023-05-04T04:29:24.150Z,7.33
2023-05-04T04:30:24.188Z,7.35
2023-05-04T04:31:24.184Z,7.38
2023-05-04T04:32:24.171Z,7.39
2023-05-04T04:33:24.136Z,7.40
2023-05-04T04:34:24.130Z,7.42
2023-05-04T04:35:24.390Z,7.42
2023-05-04T04:36:24.123Z,7.43
2023-05-04T04:37:24.079Z,7.48
2023-05-04T04:38:24.402Z,7.50
2023-05-04T04:39:24.062Z,7.48
2023-05-04T04:40:24.044Z,7.50
2023-05-04T04:41:24.023Z,7.48
2023-05-04T04:42:24.071Z,7.48
2023-05-04T04:43:24.124Z,7.50
2023-05-04T04:44:24.182Z,7.50
2023-05-04T04:45:24.000Z,7.50
2023-05-04T04:46:24.264Z,7.50
2023-05-04T04:47:24.064Z,7.48
2023-05-04T04:48:24.004Z,7.47
2023-05-04T04:49:23.944Z,7.47
2023-05-04T04:50:23.935Z,7.48
2023-05-04T04:51:24.141Z,7.50
2023-05-04T04:52:23.899Z,7.51
2023-05-04T04:53:24.877Z,7.48
2023-05-04T04:54:23.895Z,7.51
2023-05-04T04:55:23.875Z,7.51
2023-05-04T04:56:23.890Z,7.53
2023-05-04T04:57:23.857Z,7.56
2023-05-04T04:58:23.879Z,7.60
2023-05-04T04:59:23.826Z,7.60
2023-05-04T05:00:23.867Z,7.61
2023-05-04T05:01:24.631Z,7.63
2023-05-04T05:02:23.807Z,7.67
2023-05-04T05:03:23.835Z,7.67
2023-05-04T05:04:23.983Z,7.69
2023-05-04T05:05:23.777Z,7.70
2023-05-04T05:06:24.612Z,7.73
2023-05-04T05:07:23.741Z,7.73
2023-05-04T05:08:23.747Z,7.77
2023-05-04T05:09:23.726Z,7.82
2023-05-04T05:10:23.707Z,7.87
2023-05-04T05:11:23.731Z,7.93
2023-05-04T05:12:23.743Z,7.98
2023-05-04T05:13:23.683Z,8.06
2023-05-04T05:14:23.671Z,8.09
2023-05-04T05:15:24.707Z,8.15
2023-05-04T05:16:24.680Z,8.20
2023-05-04T05:17:24.745Z,8.27
2023-05-04T05:18:24.455Z,8.33
2023-05-04T05:19:23.628Z,8.37
2023-05-04T05:20:23.613Z,8.41
2023-05-04T05:21:23.700Z,8.44
2023-05-04T05:22:23.596Z,8.46
2023-05-04T05:23:23.622Z,8.49
2023-05-04T05:24:23.604Z,8.52
2023-05-04T05:25:23.574Z,8.56
2023-05-04T05:26:23.579Z,8.61
2023-05-04T05:27:24.364Z,8.67
2023-05-04T05:28:23.540Z,8.71
2023-05-04T05:29:23.534Z,8.76
2023-05-04T05:30:23.497Z,8.82
2023-05-04T05:31:23.545Z,8.85
2023-05-04T05:32:23.465Z,8.89
2023-05-04T05:33:23.485Z,8.95
2023-05-04T05:34:23.441Z,9.03
2023-05-04T05:35:23.445Z,9.08
2023-05-04T05:36:23.435Z,9.16
2023-05-04T05:37:23.990Z,9.23
2023-05-04T05:38:23.451Z,9.29
2023-05-04T05:39:23.398Z,9.37
2023-05-04T05:40:23.383Z,9.43
2023-05-04T05:41:23.360Z,9.48
2023-05-04T05:42:23.374Z,9.55
2023-05-04T05:43:23.388Z,9.65
2023-05-04T05:44:23.461Z,9.76
2023-05-04T05:45:23.341Z,9.86
2023-05-04T05:46:23.466Z,9.97
2023-05-04T05:47:23.319Z,10.05
2023-05-04T05:48:23.308Z,10.16
2023-05-04T05:49:23.281Z,10.26
2023-05-04T05:50:23.270Z,10.35
2023-05-04T05:51:23.253Z,10.42
2023-05-04T05:52:23.391Z,10.49
2023-05-04T05:53:23.250Z,10.59
2023-05-04T05:54:23.229Z,10.68
2023-05-04T05:55:23.211Z,10.75
2023-05-04T05:56:23.219Z,10.84
2023-05-04T05:57:24.011Z,10.90
2023-05-04T05:58:23.251Z,10.96
2023-05-04T05:59:23.182Z,10.97
2023-05-04T06:00:23.192Z,11.00
2023-05-04T06:01:23.191Z,11.07
2023-05-04T06:02:23.308Z,11.14
2023-05-04T06:03:24.745Z,11.22
2023-05-04T06:04:23.129Z,11.27
2023-05-04T06:05:23.099Z,11.33
2023-05-04T06:06:23.095Z,11.37
2023-05-04T06:07:23.098Z,11.44
2023-05-04T06:08:23.069Z,11.50
2023-05-04T06:09:23.061Z,11.54
2023-05-04T06:10:23.057Z,11.60
2023-05-04T06:11:23.400Z,11.63
2023-05-04T06:12:23.055Z,11.66
2023-05-04T06:13:23.013Z,11.70
2023-05-04T06:14:22.997Z,11.73
2023-05-04T06:15:23.043Z,11.80
2023-05-04T06:16:23.013Z,11.81
2023-05-04T06:17:23.820Z,11.86
2023-05-04T06:18:22.948Z,11.88
2023-05-04T06:19:22.948Z,11.88
2023-05-04T06:20:22.954Z,11.91
2023-05-04T06:21:22.923Z,11.95
2023-05-04T06:22:22.909Z,11.99
2023-05-04T06:23:22.896Z,11.99
2023-05-04T06:24:22.892Z,12.03
2023-05-04T06:25:22.934Z,12.02
2023-05-04T06:26:22.904Z,11.99
2023-05-04T06:27:24.302Z,12.00
2023-05-04T06:28:22.922Z,12.02
2023-05-04T06:29:22.829Z,12.07
2023-05-04T06:30:22.816Z,12.12
2023-05-04T06:31:22.875Z,12.17
2023-05-04T06:32:22.846Z,12.20
2023-05-04T06:33:22.934Z,12.20
2023-05-04T06:34:22.823Z,12.22
2023-05-04T06:35:22.771Z,12.22
2023-05-04T06:36:22.748Z,12.24
2023-05-04T06:37:22.749Z,12.24
2023-05-04T06:38:22.861Z,12.24
2023-05-04T06:39:22.726Z,12.21
2023-05-04T06:40:24.532Z,12.24
2023-05-04T06:41:22.787Z,12.25
2023-05-04T06:42:22.779Z,12.27
2023-05-04T06:43:22.721Z,12.29
2023-05-04T06:44:24.180Z,12.31
2023-05-04T06:45:23.623Z,12.29
2023-05-04T06:46:22.729Z,12.29
2023-05-04T06:47:23.730Z,12.32
2023-05-04T06:48:22.701Z,12.36
2023-05-04T06:49:22.617Z,12.40
2023-05-04T06:50:22.593Z,12.43
2023-05-04T06:51:22.626Z,12.46
2023-05-04T06:52:22.994Z,12.47
2023-05-04T06:53:22.591Z,12.53
2023-05-04T06:54:22.558Z,12.55
2023-05-04T06:55:22.565Z,12.58
2023-05-04T06:56:22.522Z,12.61
2023-05-04T06:57:22.572Z,12.67
2023-05-04T06:58:22.523Z,12.73
2023-05-04T06:59:22.498Z,12.76
2023-05-04T07:00:22.485Z,12.79
2023-05-04T07:01:22.489Z,12.82
2023-05-04T07:02:22.633Z,12.85
2023-05-04T07:03:22.499Z,12.90
2023-05-04T07:04:22.874Z,12.94
2023-05-04T07:05:22.475Z,12.98
2023-05-04T07:06:22.436Z,13.05
2023-05-04T07:07:22.431Z,13.12
2023-05-04T07:08:22.418Z,13.16
2023-05-04T07:09:22.744Z,13.27
2023-05-04T07:10:24.342Z,13.37
2023-05-04T07:11:22.378Z,13.39
2023-05-04T07:12:22.360Z,13.47
2023-05-04T07:13:22.368Z,13.53
2023-05-04T07:14:22.375Z,13.57
2023-05-04T07:15:23.798Z,13.62
2023-05-04T07:16:22.353Z,13.67
2023-05-04T07:17:22.773Z,13.72
2023-05-04T07:18:22.294Z,13.78
2023-05-04T07:19:22.292Z,13.86
2023-05-04T07:20:25.033Z,13.90
2023-05-04T07:21:28.466Z,13.93
2023-05-04T07:22:23.238Z,13.96
2023-05-04T07:23:22.236Z,14.00
2023-05-04T07:24:22.231Z,14.08
2023-05-04T07:25:22.222Z,14.11
2023-05-04T07:26:22.321Z,14.15
2023-05-04T07:27:22.349Z,14.22
2023-05-04T07:28:23.639Z,14.28
2023-05-04T07:29:22.162Z,14.32
2023-05-04T07:30:23.618Z,14.35
2023-05-04T07:31:22.346Z,14.41
2023-05-04T07:32:23.125Z,14.44
2023-05-04T07:33:22.159Z,14.47
2023-05-04T07:34:30.500Z,14.48
2023-05-04T07:35:23.250Z,14.47
2023-05-04T07:36:22.077Z,14.48
2023-05-04T07:37:22.446Z,14.51
2023-05-04T07:38:22.507Z,14.54
2023-05-04T07:39:22.074Z,14.58
2023-05-04T07:40:23.510Z,14.63
2023-05-04T07:41:22.513Z,14.69
2023-05-04T07:42:22.076Z,14.78
2023-05-04T07:43:22.548Z,14.81
2023-05-04T07:44:23.461Z,14.86
2023-05-04T07:45:21.992Z,14.89
2023-05-04T07:46:24.062Z,14.96
2023-05-04T07:47:23.452Z,15.00
2023-05-04T07:48:23.441Z,15.06
2023-05-04T07:49:21.957Z,15.15
2023-05-04T07:50:21.936Z,15.22
2023-05-04T07:51:23.472Z,15.28
2023-05-04T07:52:21.952Z,15.36
2023-05-04T07:53:23.366Z,15.43
2023-05-04T07:54:23.444Z,15.51
2023-05-04T07:55:22.063Z,15.54
2023-05-04T07:56:21.895Z,15.59
2023-05-04T07:57:22.671Z,15.64
2023-05-04T07:58:21.965Z,15.70
2023-05-04T07:59:21.869Z,15.76
2023-05-04T08:00:22.663Z,15.82
2023-05-04T08:01:21.821Z,15.88
2023-05-04T08:02:21.875Z,15.94
2023-05-04T08:03:23.409Z,15.98
2023-05-04T08:04:22.746Z,16.00
2023-05-04T08:05:21.839Z,16.00
2023-05-04T08:06:21.790Z,16.02
2023-05-04T08:07:22.567Z,16.05
2023-05-04T08:08:21.907Z,16.09
2023-05-04T08:09:22.055Z,16.13
2023-05-04T08:10:21.759Z,16.17
2023-05-04T08:11:21.924Z,16.24
2023-05-04T08:12:21.701Z,16.29
2023-05-04T08:13:22.659Z,16.32
2023-05-04T08:14:21.673Z,16.35
2023-05-04T08:15:21.686Z,16.41
2023-05-04T08:16:23.618Z,16.42
2023-05-04T08:17:21.714Z,16.47
2023-05-04T08:18:21.644Z,16.50
2023-05-04T08:19:21.611Z,16.56
2023-05-04T08:20:23.521Z,16.60
2023-05-04T08:21:21.836Z,16.68
2023-05-04T08:22:21.580Z,16.75
2023-05-04T08:23:21.760Z,16.83
2023-05-04T08:24:21.557Z,16.89
2023-05-04T08:25:22.022Z,16.96
2023-05-04T08:26:21.547Z,17.02
2023-05-04T08:27:22.543Z,17.09
2023-05-04T08:28:21.691Z,17.20
2023-05-04T08:29:21.527Z,17.29
2023-05-04T08:30:21.499Z,17.38
2023-05-04T08:31:21.575Z,17.44
2023-05-04T08:32:21.472Z,17.51
2023-05-04T08:33:22.415Z,17.59
2023-05-04T08:34:21.615Z,17.65
2023-05-04T08:35:21.436Z,17.72
2023-05-04T08:36:21.458Z,17.79
2023-05-04T08:37:21.419Z,17.85
2023-05-04T08:38:21.476Z,17.90
2023-05-04T08:39:21.451Z,17.95
2023-05-04T08:40:21.387Z,18.03
2023-05-04T08:41:21.382Z,18.04
2023-05-04T08:42:21.411Z,18.08
2023-05-04T08:43:21.348Z,18.13
2023-05-04T08:44:21.324Z,18.16
2023-05-04T08:45:22.163Z,18.19
2023-05-04T08:46:21.400Z,18.25
2023-05-04T08:47:21.314Z,18.28
2023-05-04T08:48:21.331Z,18.31
2023-05-04T08:49:21.291Z,18.35
2023-05-04T08:50:22.766Z,18.40
2023-05-04T08:51:21.281Z,18.47
2023-05-04T08:52:22.705Z,18.50
2023-05-04T08:53:22.200Z,18.56
2023-05-04T08:54:21.241Z,18.59
2023-05-04T08:55:21.857Z,18.66
2023-05-04T08:56:21.220Z,18.68
2023-05-04T08:57:21.229Z,18.73
2023-05-04T08:58:21.169Z,18.80
2023-05-04T08:59:21.216Z,18.83
2023-05-04T09:00:21.260Z,18.88
2023-05-04T09:01:21.208Z,18.90
2023-05-04T09:02:21.214Z,18.93
2023-05-04T09:03:22.691Z,18.96
2023-05-04T09:04:21.462Z,19.00
2023-05-04T09:05:21.162Z,19.02
2023-05-04T09:06:21.498Z,19.04
2023-05-04T09:07:21.476Z,19.08
2023-05-04T09:08:21.427Z,19.09
2023-05-04T09:09:21.057Z,19.11
2023-05-04T09:10:21.140Z,19.15
2023-05-04T09:11:21.060Z,19.16
2023-05-04T09:12:21.012Z,19.19
2023-05-04T09:13:21.066Z,19.21
2023-05-04T09:14:21.010Z,19.22
2023-05-04T09:15:21.406Z,19.24
2023-05-04T09:16:21.081Z,19.26
2023-05-04T09:17:22.567Z,19.29
2023-05-04T09:18:21.157Z,19.31
2023-05-04T09:19:20.993Z,19.36
2023-05-04T09:20:21.137Z,19.39
2023-05-04T09:21:20.931Z,19.44
2023-05-04T09:22:21.725Z,19.48
2023-05-04T09:23:20.949Z,19.54
2023-05-04T09:24:20.914Z,19.56
2023-05-04T09:25:20.873Z,19.63
2023-05-04T09:26:20.965Z,19.70
2023-05-04T09:27:20.865Z,19.76
2023-05-04T09:28:20.889Z,19.82
2023-05-04T09:29:20.851Z,19.84
2023-05-04T09:30:20.829Z,19.88
2023-05-04T09:31:20.889Z,19.86
2023-05-04T09:32:20.844Z,19.88
2023-05-04T09:33:20.811Z,19.89
2023-05-04T09:34:20.826Z,19.92
2023-05-04T09:35:31.984Z,19.92
2023-05-04T09:36:21.771Z,19.94
2023-05-04T09:37:20.789Z,19.95
2023-05-04T09:38:20.813Z,19.99
2023-05-04T09:39:22.255Z,20.00
2023-05-04T09:40:20.735Z,20.06
2023-05-04T09:41:20.738Z,20.09
2023-05-04T09:42:20.703Z,20.13
2023-05-04T09:43:20.687Z,20.18
2023-05-04T09:44:22.162Z,20.22
2023-05-04T09:45:21.641Z,20.26
2023-05-04T09:46:20.751Z,20.28
2023-05-04T09:47:20.637Z,20.29
2023-05-04T09:48:20.811Z,20.34
2023-05-04T09:49:20.622Z,20.36
2023-05-04T09:50:21.253Z,20.39
2023-05-04T09:51:20.591Z,20.43
2023-05-04T09:52:21.399Z,20.43
2023-05-04T09:53:22.033Z,20.48
2023-05-04T09:54:20.602Z,20.50
2023-05-04T09:55:20.600Z,20.51
2023-05-04T09:56:20.580Z,20.50
2023-05-04T09:57:20.607Z,20.51
2023-05-04T09:58:21.965Z,20.56
2023-05-04T09:59:20.497Z,20.59
2023-05-04T10:00:20.597Z,20.62
2023-05-04T10:01:20.564Z,20.66
2023-05-04T10:02:23.125Z,20.69
2023-05-04T10:03:20.516Z,20.72
2023-05-04T10:04:21.425Z,20.77
2023-05-04T10:05:21.718Z,20.82
2023-05-04T10:06:20.431Z,20.85
2023-05-04T10:07:20.413Z,20.88
2023-05-04T10:08:20.495Z,20.92
2023-05-04T10:09:20.466Z,20.99
2023-05-04T10:10:20.393Z,21.02
2023-05-04T10:11:20.402Z,21.07
2023-05-04T10:12:21.341Z,21.14
2023-05-04T10:13:20.347Z,21.20
2023-05-04T10:14:20.325Z,21.22
2023-05-04T10:15:20.356Z,21.22
2023-05-04T10:16:22.345Z,21.25
2023-05-04T10:17:21.976Z,21.27
2023-05-04T10:18:20.688Z,21.30
2023-05-04T10:19:20.284Z,21.33
2023-05-04T10:20:20.297Z,21.36
2023-05-04T10:21:20.291Z,21.39
2023-05-04T10:22:20.277Z,21.40
2023-05-04T10:23:21.972Z,21.40
2023-05-04T10:24:20.238Z,21.39
2023-05-04T10:25:20.254Z,21.39
2023-05-04T10:26:20.301Z,21.37
2023-05-04T10:27:20.205Z,21.37
2023-05-04T10:28:20.212Z,21.40
2023-05-04T10:29:21.379Z,21.42
2023-05-04T10:30:20.162Z,21.43
2023-05-04T10:31:20.177Z,21.45
2023-05-04T10:32:20.144Z,21.45
2023-05-04T10:33:20.152Z,21.46
2023-05-04T10:34:20.168Z,21.50
2023-05-04T10:35:20.167Z,21.48
2023-05-04T10:36:20.098Z,21.51
2023-05-04T10:37:20.106Z,21.51
2023-05-04T10:38:20.089Z,21.51
2023-05-04T10:39:20.074Z,21.51
2023-05-04T10:40:20.057Z,21.50
2023-05-04T10:41:20.053Z,21.52
2023-05-04T10:42:20.063Z,21.55
2023-05-04T10:43:20.050Z,21.61
2023-05-04T10:44:20.025Z,21.67
2023-05-04T10:45:20.001Z,21.72
2023-05-04T10:46:21.556Z,21.77
2023-05-04T10:47:19.972Z,21.79
2023-05-04T10:48:20.018Z,21.82
2023-05-04T10:49:19.954Z,21.83
2023-05-04T10:50:19.949Z,21.89
2023-05-04T10:51:19.947Z,21.91
2023-05-04T10:52:19.924Z,21.92
2023-05-04T10:53:19.892Z,21.95
2023-05-04T10:54:20.384Z,22.00
2023-05-04T10:55:19.881Z,22.04
2023-05-04T10:56:19.879Z,22.04
2023-05-04T10:57:19.873Z,22.07
2023-05-04T10:58:19.871Z,22.07
2023-05-04T10:59:19.837Z,22.07
2023-05-04T11:00:19.865Z,22.08
2023-05-04T11:01:19.900Z,22.08
2023-05-04T11:02:19.882Z,22.11
2023-05-04T11:03:19.884Z,22.14
2023-05-04T11:04:19.786Z,22.17
2023-05-04T11:05:19.787Z,22.20
2023-05-04T11:06:23.436Z,22.23
2023-05-04T11:07:19.815Z,22.25
2023-05-04T11:08:19.772Z,22.25
2023-05-04T11:09:19.752Z,22.29
2023-05-04T11:10:19.727Z,22.29
2023-05-04T11:11:19.731Z,22.29
2023-05-04T11:12:19.723Z,22.29
2023-05-04T11:13:19.811Z,22.30
2023-05-04T11:14:19.675Z,22.32
2023-05-04T11:15:19.694Z,22.32
2023-05-04T11:16:19.738Z,22.29
2023-05-04T11:17:28.206Z,22.26
2023-05-04T11:18:20.637Z,22.23
2023-05-04T11:19:19.617Z,22.20
2023-05-04T11:20:19.619Z,22.17
2023-05-04T11:21:19.643Z,22.15
2023-05-04T11:22:19.595Z,22.15
2023-05-04T11:23:19.584Z,22.15
2023-05-04T11:24:19.567Z,22.17
2023-05-04T11:25:19.552Z,22.17
2023-05-04T11:26:19.545Z,22.17
2023-05-04T11:27:19.566Z,22.15
2023-05-04T11:28:19.529Z,22.14
2023-05-04T11:29:19.536Z,22.15
2023-05-04T11:30:19.497Z,22.15
2023-05-04T11:31:19.534Z,22.15
2023-05-04T11:32:19.483Z,22.14
2023-05-04T11:33:19.504Z,22.17
2023-05-04T11:34:19.479Z,22.20
2023-05-04T11:35:19.446Z,22.23
2023-05-04T11:36:19.470Z,22.25
2023-05-04T11:37:19.430Z,22.28
2023-05-04T11:38:19.419Z,22.30
2023-05-04T11:39:19.416Z,22.36
2023-05-04T11:40:19.407Z,22.41
2023-05-04T11:41:19.391Z,22.44
2023-05-04T11:42:19.386Z,22.44
2023-05-04T11:43:19.372Z,22.44
2023-05-04T11:44:19.403Z,22.45
2023-05-04T11:45:19.355Z,22.48
2023-05-04T11:46:19.376Z,22.51
2023-05-04T11:47:19.308Z,22.54
2023-05-04T11:48:20.808Z,22.57
2023-05-04T11:49:19.291Z,22.55
2023-05-04T11:50:19.306Z,22.54
2023-05-04T11:51:19.269Z,22.57
2023-05-04T11:52:19.256Z,22.60
2023-05-04T11:53:19.267Z,22.63
2023-05-04T11:54:19.277Z,22.66
2023-05-04T11:55:19.220Z,22.68
2023-05-04T11:56:19.222Z,22.72
2023-05-04T11:57:19.320Z,22.75
2023-05-04T11:58:19.231Z,22.80
2023-05-04T11:59:19.193Z,22.84
2023-05-04T12:00:19.233Z,22.85
2023-05-04T12:01:19.162Z,22.91
2023-05-04T12:02:19.180Z,22.91
2023-05-04T12:03:19.257Z,22.98
2023-05-04T12:04:19.183Z,23.02
2023-05-04T12:05:20.600Z,23.05
2023-05-04T12:06:19.136Z,23.08
2023-05-04T12:07:19.086Z,23.12
2023-05-04T12:08:19.159Z,23.12
2023-05-04T12:09:19.098Z,23.13
2023-05-04T12:10:19.115Z,23.13
2023-05-04T12:11:19.062Z,23.17
2023-05-04T12:12:19.143Z,23.17
2023-05-04T12:13:20.760Z,23.17
2023-05-04T12:14:19.016Z,23.17
2023-05-04T12:15:19.032Z,23.18
2023-05-04T12:16:19.105Z,23.21
2023-05-04T12:17:19.114Z,23.27
2023-05-04T12:18:19.008Z,23.31
2023-05-04T12:19:19.036Z,23.36
2023-05-04T12:20:18.976Z,23.41
2023-05-04T12:21:18.963Z,23.47
2023-05-04T12:22:18.944Z,23.54
2023-05-04T12:23:18.936Z,23.61
2023-05-04T12:24:19.719Z,23.74
2023-05-04T12:25:18.900Z,23.83
2023-05-04T12:26:19.775Z,23.92
2023-05-04T12:27:19.018Z,24.08
2023-05-04T12:28:18.895Z,24.30
2023-05-04T12:29:19.952Z,24.60
2023-05-04T12:30:18.877Z,24.93
2023-05-04T12:31:18.903Z,25.22
2023-05-04T12:32:18.857Z,25.50
2023-05-04T12:33:18.812Z,25.78
2023-05-04T12:34:18.803Z,26.03
2023-05-04T12:35:18.798Z,26.29
2023-05-04T12:36:18.853Z,26.53
2023-05-04T12:37:18.796Z,26.80
2023-05-04T12:38:18.816Z,27.08
2023-05-04T12:39:18.755Z,27.32
2023-05-04T12:40:28.367Z,27.55
2023-05-04T12:41:19.728Z,27.80
2023-05-04T12:42:18.732Z,27.95
2023-05-04T12:43:20.828Z,28.11
2023-05-04T12:44:18.730Z,28.23
2023-05-04T12:45:18.691Z,28.30
2023-05-04T12:46:18.763Z,28.45
2023-05-04T12:47:18.685Z,28.57
2023-05-04T12:48:18.702Z,28.69
2023-05-04T12:49:19.615Z,28.79
2023-05-04T12:50:18.709Z,28.94
2023-05-04T12:51:18.652Z,29.05
2023-05-04T12:52:18.663Z,29.17
2023-05-04T12:53:18.586Z,29.31
2023-05-04T12:54:18.585Z,29.44
2023-05-04T12:55:18.584Z,29.53
2023-05-04T12:56:18.616Z,29.60
2023-05-04T12:57:18.559Z,29.65
2023-05-04T12:58:18.555Z,29.68
2023-05-04T12:59:18.567Z,29.72
2023-05-04T13:00:18.546Z,29.78
2023-05-04T13:01:18.626Z,29.93